Overview Statistics Trail Chart Weather Telemetry Raw packets
 

This is the latest recevied weather packets stored in our database for station/object PA3FNT-13. If no packets are shown the sender has not sent any weather packets the latest 10 day(s).

<< 9 10 11 12 13 14 15 >>
Time Temp. Humidity Pressure Rain* Wind** Luminosity Snow
1788264201 28.33° C 37% 1020.1 hPa - - - -
1788263301 27.78° C 39% 1019.9 hPa - - - -
1788262401 27.22° C 39% 1019.8 hPa - - - -
1788261501 27.78° C 39% 1019.8 hPa - - - -
1788260600 28.33° C 38% 1019.8 hPa - - - -
1788259700 27.22° C 40% 1019.7 hPa - - - -
1788258800 27.22° C 40% 1019.6 hPa - - - -
1788257900 26.67° C 41% 1019.6 hPa - - - -
1788257000 26.67° C 41% 1019.5 hPa - - - -
1788256100 26.67° C 42% 1019.5 hPa - - - -
1788255220 26.67° C 42% 1019.4 hPa - - - -
1788254299 26.67° C 41% 1019.2 hPa - - - -
1788253399 26.67° C 42% 1019.2 hPa - - - -
1788252499 26.67° C 42% 1019.2 hPa - - - -
1788251599 26.67° C 42% 1019 hPa - - - -
1788250699 26.67° C 42% 1018.8 hPa - - - -
1788249798 26.67° C 42% 1018.7 hPa - - - -
1788248898 28.33° C 40% 1018.5 hPa - - - -
1788247998 26.67° C 44% 1018.4 hPa - - - -
1788247098 26.67° C 44% 1018.2 hPa - - - -
1788246198 26.67° C 44% 1018.1 hPa - - - -
1788245298 26.11° C 45% 1018 hPa - - - -
1788244398 26.67° C 45% 1018 hPa - - - -
1788243497 26.11° C 45% 1017.8 hPa - - - -
1788242597 26.67° C 44% 1017.7 hPa - - - -

* Rain since midnight (hover to see other rain measurements)
** Current wind speed in m/s (hover to see current wind gust speed)